Time;durP1;ratioP1;P1;durP2;ratioP2;P2;SDS_P1;SDS_P2;PMS_P1;PMS_P2;Temp;Humidity;BMP_temperature;BMP_pressure;BME280_temperature;BME280_humidity;BME280_pressure;Samples;Min_cycle;Max_cycle;Signal;HPM_P1;HPM_P2
2022/03/28 00:01:55;;;;;;;3.15;2.85;;;20.50;45.30;;;;;;5012960;28;20646;-71
2022/03/28 00:04:22;;;;;;;2.83;2.60;;;20.50;45.30;;;;;;5012687;28;20199;-72
2022/03/28 00:06:48;;;;;;;2.85;2.65;;;20.50;45.30;;;;;;5012373;28;20674;-71
2022/03/28 00:09:14;;;;;;;4.80;2.95;;;20.50;45.30;;;;;;5012818;28;20262;-71
2022/03/28 00:11:40;;;;;;;3.40;2.97;;;20.50;45.30;;;;;;5013029;28;20219;-71
2022/03/28 00:14:06;;;;;;;2.70;2.50;;;20.50;45.30;;;;;;5013450;28;20184;-71
2022/03/28 00:16:32;;;;;;;3.25;2.75;;;20.50;45.30;;;;;;5013075;28;20188;-71
2022/03/28 00:18:58;;;;;;;2.67;2.47;;;20.50;45.30;;;;;;5028664;28;20219;-71
2022/03/28 00:21:25;;;;;;;2.88;2.47;;;20.50;45.40;;;;;;5012137;28;20190;-71
2022/03/28 00:23:52;;;;;;;2.58;2.38;;;20.50;45.30;;;;;;5012633;28;20195;-71
2022/03/28 00:26:19;;;;;;;3.30;2.75;;;20.50;45.40;;;;;;5012477;28;20187;-71
2022/03/28 00:28:45;;;;;;;3.53;3.13;;;20.50;45.30;;;;;;5012207;28;20687;-71
2022/03/28 00:31:11;;;;;;;3.45;3.15;;;20.50;45.40;;;;;;5013326;28;20737;-71
2022/03/28 00:33:38;;;;;;;4.65;3.58;;;20.50;45.30;;;;;;5012123;28;20234;-71
2022/03/28 00:36:04;;;;;;;4.93;3.75;;;20.50;45.30;;;;;;5012153;28;20274;-71
2022/03/28 00:38:30;;;;;;;3.65;3.20;;;20.50;45.30;;;;;;5012135;28;20188;-71
2022/03/28 00:40:56;;;;;;;4.50;3.67;;;20.50;45.30;;;;;;5012333;28;20338;-71
2022/03/28 00:43:22;;;;;;;4.72;3.95;;;20.50;45.20;;;;;;5012099;28;20275;-71
2022/03/28 00:45:48;;;;;;;4.57;3.70;;;20.50;45.20;;;;;;5028243;28;20271;-71
2022/03/28 00:48:14;;;;;;;3.85;3.42;;;20.50;45.20;;;;;;5012118;28;20342;-71
2022/03/28 00:50:41;;;;;;;4.55;3.85;;;20.40;45.10;;;;;;5011779;28;20188;-71
2022/03/28 00:53:12;;;;;;;3.65;3.35;;;20.40;45.10;;;;;;5028215;28;20227;-71
2022/03/28 00:55:39;;;;;;;2.97;2.70;;;20.40;45.20;;;;;;5011653;28;20171;-71
2022/03/28 00:58:05;;;;;;;3.17;2.88;;;20.40;45.20;;;;;;5012043;28;20242;-71
2022/03/28 01:00:31;;;;;;;3.03;2.60;;;20.40;45.20;;;;;;4995391;28;20188;-72
2022/03/28 01:02:57;;;;;;;2.70;2.50;;;20.50;45.30;;;;;;5011832;28;20266;-71
2022/03/28 01:05:26;;;;;;;2.55;2.35;;;20.40;45.20;;;;;;5012619;28;20180;-71
2022/03/28 01:07:53;;;;;;;3.45;3.15;;;20.50;45.30;;;;;;5011895;28;20184;-72
2022/03/28 01:10:19;;;;;;;3.03;2.72;;;20.40;45.20;;;;;;5010976;28;20274;-71
2022/03/28 01:12:46;;;;;;;3.13;2.83;;;20.40;45.20;;;;;;5035163;22;20226;-69
2022/03/28 01:15:14;;;;;;;3.63;2.72;;;20.40;45.20;;;;;;5050695;28;20186;-68
2022/03/28 01:20:31;;;;;;;5.18;3.80;;;20.40;45.20;;;;;;5051114;28;20256;-71
2022/03/28 01:22:57;;;;;;;4.70;3.85;;;20.40;45.20;;;;;;5031072;28;20215;-72
2022/03/28 01:25:26;;;;;;;4.55;3.65;;;20.40;45.10;;;;;;5031103;28;20179;-71
2022/03/28 01:27:53;;;;;;;4.18;3.65;;;20.40;45.20;;;;;;5031066;28;20214;-71
2022/03/28 01:30:23;;;;;;;4.65;3.60;;;20.40;45.10;;;;;;5030978;28;20183;-71
2022/03/28 01:32:51;;;;;;;4.03;3.38;;;20.40;45.00;;;;;;5031013;28;20207;-71
2022/03/28 01:35:38;;;;;;;3.45;2.92;;;20.40;45.10;;;;;;5030832;28;20214;-71
2022/03/28 01:38:06;;;;;;;3.33;3.03;;;20.40;45.10;;;;;;5031025;28;20183;-71
2022/03/28 01:40:36;;;;;;;3.25;2.92;;;20.40;45.20;;;;;;5031225;28;20183;-71
2022/03/28 01:43:02;;;;;;;3.25;2.90;;;20.40;45.20;;;;;;5032149;28;20207;-71
2022/03/28 01:45:28;;;;;;;3.20;3.00;;;20.40;45.20;;;;;;5030939;28;20187;-71
2022/03/28 01:47:54;;;;;;;3.45;3.15;;;20.40;45.20;;;;;;5031191;28;20552;-71
2022/03/28 01:50:21;;;;;;;2.88;2.65;;;20.40;45.20;;;;;;5030953;28;20191;-71
2022/03/28 01:52:47;;;;;;;3.53;3.22;;;20.40;45.20;;;;;;5032077;28;20302;-71
2022/03/28 01:55:14;;;;;;;3.80;3.50;;;20.40;45.20;;;;;;5014354;28;20270;-71
2022/03/28 01:57:42;;;;;;;4.13;3.72;;;20.40;45.20;;;;;;4998306;28;20191;-71
2022/03/28 02:00:16;;;;;;;5.38;4.15;;;20.40;45.20;;;;;;5014646;28;20183;-72
2022/03/28 02:02:44;;;;;;;4.28;3.85;;;20.40;45.10;;;;;;5031033;28;20211;-71
2022/03/28 02:05:11;;;;;;;4.70;4.13;;;20.40;45.10;;;;;;5030712;28;20175;-71
2022/03/28 02:07:43;;;;;;;4.05;3.67;;;20.40;45.00;;;;;;5031922;28;20176;-71
2022/03/28 02:10:11;;;;;;;4.85;4.10;;;20.40;45.00;;;;;;5032047;28;20182;-71
2022/03/28 02:12:37;;;;;;;4.20;3.10;;;20.30;44.90;;;;;;5030531;28;20341;-71
2022/03/28 02:15:09;;;;;;;3.47;3.17;;;20.30;44.90;;;;;;5030682;28;20179;-71
2022/03/28 02:17:35;;;;;;;3.20;2.83;;;20.30;45.00;;;;;;5031776;28;20650;-71
2022/03/28 02:20:02;;;;;;;3.67;2.85;;;20.40;45.20;;;;;;5014164;28;20191;-71
2022/03/28 02:22:28;;;;;;;2.83;2.60;;;20.30;45.00;;;;;;5033542;28;20184;-71
2022/03/28 02:24:54;;;;;;;3.63;3.22;;;20.30;45.00;;;;;;5034582;28;20190;-71
2022/03/28 02:27:19;;;;;;;3.38;3.08;;;20.30;45.00;;;;;;5035361;28;20167;-71
2022/03/28 02:29:45;;;;;;;3.17;2.88;;;20.30;45.00;;;;;;5017713;28;20203;-71
2022/03/28 02:32:12;;;;;;;3.28;2.95;;;20.30;45.10;;;;;;5034116;28;20720;-71
2022/03/28 02:34:38;;;;;;;3.00;2.75;;;20.30;45.10;;;;;;5034425;28;20183;-71
2022/03/28 02:37:04;;;;;;;3.05;2.75;;;20.30;45.10;;;;;;5017538;28;20183;-71
2022/03/28 02:39:30;;;;;;;4.00;3.25;;;20.30;45.10;;;;;;5050514;28;20187;-72
2022/03/28 02:41:56;;;;;;;3.70;3.15;;;20.30;45.00;;;;;;5035527;28;20184;-71
2022/03/28 02:44:21;;;;;;;4.25;3.83;;;20.30;45.00;;;;;;5050692;28;20214;-71
2022/03/28 02:46:49;;;;;;;4.38;3.50;;;20.30;45.00;;;;;;5034187;28;20167;-71
2022/03/28 02:49:15;;;;;;;4.38;3.95;;;20.30;44.90;;;;;;5033801;28;20207;-71
2022/03/28 02:51:42;;;;;;;4.57;4.13;;;20.30;44.90;;;;;;5033662;28;20195;-71
2022/03/28 02:54:07;;;;;;;5.53;4.38;;;20.30;44.90;;;;;;5033864;28;20230;-71
2022/03/28 02:56:34;;;;;;;4.22;3.83;;;20.30;44.90;;;;;;5033555;28;20214;-71
2022/03/28 02:59:00;;;;;;;5.00;4.18;;;20.30;44.80;;;;;;5015493;28;20181;-71
2022/03/28 03:01:25;;;;;;;4.45;4.03;;;20.30;44.90;;;;;;5033357;28;20233;-71
2022/03/28 03:03:51;;;;;;;4.60;4.20;;;20.30;44.90;;;;;;5033491;28;20210;-71
2022/03/28 03:06:17;;;;;;;4.45;4.05;;;20.30;44.80;;;;;;5033619;28;20530;-71
2022/03/28 03:08:43;;;;;;;3.65;3.35;;;20.30;44.80;;;;;;5050015;28;20225;-71
2022/03/28 03:11:09;;;;;;;3.50;3.20;;;20.30;44.90;;;;;;5033252;28;20190;-71
2022/03/28 03:13:36;;;;;;;3.35;3.05;;;20.30;44.90;;;;;;5033154;28;20304;-71
2022/03/28 03:16:04;;;;;;;3.28;2.97;;;20.30;44.90;;;;;;5016638;28;20310;-71
2022/03/28 03:18:29;;;;;;;3.17;2.95;;;20.30;44.90;;;;;;5033560;28;20241;-71
2022/03/28 03:20:56;;;;;;;3.50;2.92;;;20.30;45.00;;;;;;5033507;28;20274;-71
2022/03/28 03:23:21;;;;;;;2.88;2.67;;;20.20;44.90;;;;;;5033368;28;20226;-71
2022/03/28 03:25:48;;;;;;;3.30;3.00;;;20.20;44.90;;;;;;5049872;28;20191;-71
2022/03/28 03:28:16;;;;;;;2.95;2.75;;;20.30;45.00;;;;;;5033195;28;20200;-71
2022/03/28 03:30:42;;;;;;;3.28;2.97;;;20.30;45.00;;;;;;5016466;28;20214;-71
2022/03/28 03:33:09;;;;;;;3.33;3.03;;;20.30;45.00;;;;;;5033003;28;20203;-72
2022/03/28 03:35:35;;;;;;;3.58;3.28;;;20.20;45.00;;;;;;5032552;28;20233;-72
2022/03/28 03:38:01;;;;;;;4.15;3.72;;;20.30;45.10;;;;;;5032992;28;20183;-71
2022/03/28 03:40:27;;;;;;;3.97;3.63;;;20.20;44.90;;;;;;5016524;28;20183;-72
2022/03/28 03:42:53;;;;;;;5.82;4.03;;;20.20;44.90;;;;;;5033948;28;20290;-71
2022/03/28 03:45:19;;;;;;;5.47;4.15;;;20.30;45.00;;;;;;5032802;28;20178;-71
2022/03/28 03:47:44;;;;;;;4.80;4.28;;;20.30;44.90;;;;;;5033841;28;20171;-72
2022/03/28 03:50:10;;;;;;;4.88;4.35;;;20.30;44.90;;;;;;5032380;28;20187;-71
2022/03/28 03:52:37;;;;;;;5.00;4.47;;;20.20;44.70;;;;;;5033591;28;20278;-71
2022/03/28 03:55:04;;;;;;;4.55;4.15;;;20.20;44.70;;;;;;5032572;28;20183;-71
2022/03/28 03:57:30;;;;;;;4.80;4.28;;;20.20;44.80;;;;;;5032378;28;20286;-71
2022/03/28 03:59:55;;;;;;;4.38;3.97;;;20.20;44.70;;;;;;5032566;28;20258;-71
2022/03/28 04:02:21;;;;;;;4.47;3.60;;;20.20;44.80;;;;;;5032368;28;20702;-72
2022/03/28 04:04:47;;;;;;;3.72;3.42;;;20.20;44.80;;;;;;5033687;28;20190;-71
2022/03/28 04:07:13;;;;;;;3.58;3.28;;;20.20;44.80;;;;;;5032269;28;20244;-72
2022/03/28 04:09:39;;;;;;;3.45;3.15;;;20.20;44.70;;;;;;5033880;28;20207;-71
2022/03/28 04:12:05;;;;;;;3.22;2.92;;;20.20;44.90;;;;;;5033580;28;20233;-72
2022/03/28 04:14:31;;;;;;;3.28;2.97;;;20.20;44.90;;;;;;5032553;28;20217;-71
2022/03/28 04:16:57;;;;;;;4.15;3.10;;;20.20;44.90;;;;;;5032040;28;20187;-70
2022/03/28 04:19:23;;;;;;;3.58;3.15;;;20.20;45.00;;;;;;5015989;28;20210;-70
2022/03/28 04:21:49;;;;;;;4.57;3.40;;;20.20;45.00;;;;;;5032080;28;20187;-70
2022/03/28 04:24:14;;;;;;;4.45;3.35;;;20.20;45.00;;;;;;5032036;28;20577;-70
2022/03/28 04:26:40;;;;;;;5.07;3.30;;;20.20;45.00;;;;;;5031912;28;20191;-70
2022/03/28 04:29:06;;;;;;;4.72;3.30;;;20.20;45.20;;;;;;5033192;28;20207;-70
2022/03/28 04:31:31;;;;;;;3.83;3.10;;;20.20;45.50;;;;;;5032228;28;20237;-69
2022/03/28 04:33:57;;;;;;;3.55;3.10;;;20.30;45.70;;;;;;5032124;28;20199;-71
2022/03/28 04:36:24;;;;;;;3.40;3.10;;;20.30;45.90;;;;;;5033169;28;20654;-71
2022/03/28 04:38:50;;;;;;;4.35;3.88;;;20.30;45.80;;;;;;5033125;28;20296;-71
2022/03/28 04:41:15;;;;;;;6.75;4.32;;;20.30;45.80;;;;;;5031983;28;20282;-70
2022/03/28 04:43:41;;;;;;;5.50;4.35;;;20.20;45.70;;;;;;5031837;28;20277;-70
2022/03/28 04:46:07;;;;;;;5.32;4.63;;;20.30;45.80;;;;;;5031804;28;20193;-71
2022/03/28 04:48:33;;;;;;;5.68;4.35;;;20.30;45.70;;;;;;5032772;28;20207;-70
2022/03/28 04:50:58;;;;;;;5.45;4.40;;;20.20;45.60;;;;;;5048336;28;20186;-70
2022/03/28 04:53:24;;;;;;;7.07;4.78;;;20.20;45.50;;;;;;5031792;28;20207;-71
2022/03/28 04:55:50;;;;;;;5.45;4.30;;;20.20;45.70;;;;;;5031654;28;20189;-71
2022/03/28 04:58:16;;;;;;;7.43;3.90;;;20.30;45.80;;;;;;5023528;28;20221;-70
2022/03/28 05:00:43;;;;;;;6.00;4.25;;;20.20;45.70;;;;;;5011994;28;20199;-71
2022/03/28 05:03:09;;;;;;;6.43;3.83;;;20.20;46.10;;;;;;5011883;28;20211;-70
2022/03/28 05:05:34;;;;;;;8.73;3.65;;;20.30;46.20;;;;;;5011853;28;20188;-70
2022/03/28 05:08:00;;;;;;;6.50;3.58;;;20.20;46.70;;;;;;5011839;28;20192;-71
2022/03/28 05:10:26;;;;;;;3.90;3.50;;;20.30;46.80;;;;;;5011592;28;20191;-71
2022/03/28 05:12:52;;;;;;;7.55;3.25;;;20.30;47.30;;;;;;5012519;28;20212;-72
2022/03/28 05:15:17;;;;;;;6.78;3.80;;;20.20;46.70;;;;;;5011122;28;20195;-72
2022/03/28 05:17:43;;;;;;;5.63;4.18;;;20.10;47.20;;;;;;5009960;28;20194;-71
2022/03/28 05:20:10;;;;;;;7.80;3.95;;;20.10;47.20;;;;;;5027192;28;20192;-71
2022/03/28 05:22:39;;;;;;;7.07;4.40;;;20.10;47.20;;;;;;5010609;28;20220;-72
2022/03/28 05:25:06;;;;;;;7.88;4.40;;;20.20;47.00;;;;;;5010826;28;20670;-72
2022/03/28 05:27:32;;;;;;;7.20;3.88;;;20.20;46.70;;;;;;5012829;28;20184;-72
2022/03/28 05:29:59;;;;;;;10.52;4.20;;;20.20;46.70;;;;;;5030265;28;20273;-72
2022/03/28 05:32:24;;;;;;;9.25;4.38;;;20.20;46.60;;;;;;5030706;28;20191;-72
2022/03/28 05:34:50;;;;;;;10.23;4.85;;;20.20;46.70;;;;;;5030413;28;20190;-72
2022/03/28 05:37:17;;;;;;;7.57;4.88;;;20.20;46.60;;;;;;5030122;28;20179;-72
2022/03/28 05:39:46;;;;;;;8.95;5.15;;;20.20;46.50;;;;;;5030498;28;20198;-71
2022/03/28 05:42:12;;;;;;;7.55;5.03;;;20.20;46.40;;;;;;5030676;28;20195;-71
2022/03/28 05:44:41;;;;;;;8.18;5.07;;;20.20;46.40;;;;;;5046408;28;20186;-72
2022/03/28 05:47:07;;;;;;;9.23;5.93;;;20.20;46.40;;;;;;5026262;28;20310;-72
2022/03/28 05:49:33;;;;;;;9.00;5.05;;;20.20;46.30;;;;;;5021860;28;20289;-72
2022/03/28 05:52:00;;;;;;;8.48;4.80;;;20.20;46.30;;;;;;5030553;28;20266;-72
2022/03/28 05:54:26;;;;;;;8.48;5.20;;;20.20;46.40;;;;;;5030249;28;20199;-71
2022/03/28 05:56:52;;;;;;;5.57;4.50;;;20.20;46.20;;;;;;5031013;28;20282;-72
2022/03/28 05:59:18;;;;;;;8.90;4.40;;;20.20;46.30;;;;;;5034278;28;20197;-72
2022/03/28 06:01:44;;;;;;;6.55;4.00;;;20.20;46.20;;;;;;5035237;28;20258;-72
2022/03/28 06:04:09;;;;;;;5.38;3.60;;;20.20;46.40;;;;;;5034056;28;20278;-72
2022/03/28 06:06:35;;;;;;;4.65;3.45;;;20.20;46.40;;;;;;5034041;28;20195;-72
2022/03/28 06:09:02;;;;;;;5.50;3.42;;;20.20;46.40;;;;;;5034148;28;20219;-71
2022/03/28 06:11:28;;;;;;;6.97;3.88;;;20.20;46.30;;;;;;5033958;28;20183;-72
2022/03/28 06:13:56;;;;;;;5.45;3.80;;;20.20;46.30;;;;;;5033973;28;20260;-71
2022/03/28 06:16:24;;;;;;;5.38;3.58;;;20.20;46.30;;;;;;5033603;28;20270;-72
2022/03/28 06:18:50;;;;;;;5.88;3.95;;;20.20;46.20;;;;;;5033739;28;20193;-72
2022/03/28 06:21:16;;;;;;;4.82;3.58;;;20.20;46.20;;;;;;5033806;28;20183;-71
2022/03/28 06:23:42;;;;;;;9.65;4.20;;;20.20;46.20;;;;;;5033856;28;20208;-72
2022/03/28 06:26:10;;;;;;;6.07;4.47;;;20.20;46.10;;;;;;5033662;28;20183;-72
2022/03/28 06:28:39;;;;;;;6.40;4.30;;;20.30;46.20;;;;;;5033472;28;20218;-72
2022/03/28 06:31:06;;;;;;;5.70;5.10;;;20.30;46.10;;;;;;5034701;28;20211;-71
2022/03/28 06:33:32;;;;;;;7.40;5.30;;;20.30;46.20;;;;;;5033454;28;20208;-71
2022/03/28 06:35:57;;;;;;;8.10;5.00;;;20.30;46.10;;;;;;5034741;28;20191;-71
2022/03/28 06:38:23;;;;;;;5.82;5.07;;;20.30;46.10;;;;;;5033503;28;20191;-72
2022/03/28 06:40:49;;;;;;;8.75;5.50;;;20.30;46.00;;;;;;5033506;28;20210;-72
2022/03/28 06:43:15;;;;;;;6.30;5.05;;;20.30;46.00;;;;;;5033437;28;20199;-71
2022/03/28 06:45:41;;;;;;;11.32;6.28;;;20.30;46.00;;;;;;5033313;28;20237;-71
2022/03/28 06:48:07;;;;;;;8.05;5.35;;;20.40;45.90;;;;;;5033065;28;20195;-72
2022/03/28 06:50:34;;;;;;;7.22;5.45;;;20.30;45.80;;;;;;5032774;28;20199;-72
2022/03/28 06:53:00;;;;;;;6.78;4.57;;;20.30;45.80;;;;;;5033373;28;20286;-72
2022/03/28 06:55:27;;;;;;;6.80;4.00;;;20.30;45.80;;;;;;5034043;28;20175;-72
2022/03/28 06:57:53;;;;;;;5.03;4.10;;;20.40;45.90;;;;;;5033033;28;20663;-71
2022/03/28 07:00:19;;;;;;;3.88;3.50;;;20.40;45.90;;;;;;5033335;28;20187;-73
2022/03/28 07:02:46;;;;;;;4.90;3.80;;;20.40;45.90;;;;;;5049808;28;20207;-71
2022/03/28 07:05:12;;;;;;;4.00;3.50;;;20.40;45.80;;;;;;5033122;28;20195;-71
2022/03/28 07:07:43;;;;;;;4.07;3.67;;;20.50;45.80;;;;;;5032795;28;20198;-72
2022/03/28 07:10:15;;;;;;;4.65;3.40;;;20.50;45.80;;;;;;5031958;28;20225;-72
2022/03/28 07:15:37;;;;;;;4.32;3.92;;;20.50;45.80;;;;;;4992937;28;20203;-69
2022/03/28 07:18:06;;;;;;;6.05;4.57;;;20.50;45.70;;;;;;4993004;28;20189;-70
2022/03/28 07:20:32;;;;;;;5.53;4.90;;;20.50;45.70;;;;;;4992861;28;20727;-70
2022/03/28 07:22:59;;;;;;;4.95;4.38;;;20.60;45.80;;;;;;4993275;28;20189;-70
2022/03/28 07:25:25;;;;;;;4.63;4.20;;;20.60;45.70;;;;;;4992977;28;20181;-66
2022/03/28 07:27:52;;;;;;;5.60;4.22;;;20.60;45.70;;;;;;4993005;28;20204;-70
2022/03/28 07:30:21;;;;;;;4.80;4.25;;;20.60;45.60;;;;;;4992468;28;20205;-70
2022/03/28 07:32:47;;;;;;;5.47;4.35;;;20.60;45.50;;;;;;4992996;28;20185;-70
2022/03/28 07:35:15;;;;;;;5.03;4.47;;;20.70;45.60;;;;;;4992605;28;20767;-70
2022/03/28 07:37:42;;;;;;;6.82;4.10;;;20.70;45.50;;;;;;4992511;28;20185;-70
2022/03/28 07:40:10;;;;;;;4.85;4.05;;;20.70;45.50;;;;;;4992899;28;20279;-70
2022/03/28 07:42:38;;;;;;;5.80;3.97;;;20.70;45.50;;;;;;4993075;28;20271;-70
2022/03/28 07:45:05;;;;;;;5.07;4.32;;;20.70;45.40;;;;;;4992677;28;20583;-70
2022/03/28 07:47:32;;;;;;;5.05;3.88;;;20.80;45.60;;;;;;4994094;28;20192;-70
2022/03/28 07:49:59;;;;;;;4.57;4.10;;;20.80;45.50;;;;;;4992673;28;20216;-70
2022/03/28 07:52:25;;;;;;;5.30;4.18;;;20.80;45.50;;;;;;4992916;28;20181;-70
2022/03/28 07:54:51;;;;;;;3.67;3.38;;;20.80;45.50;;;;;;4992713;28;20212;-70
2022/03/28 07:57:19;;;;;;;4.65;4.22;;;20.80;45.50;;;;;;4992438;28;20196;-70
2022/03/28 07:59:47;;;;;;;4.05;3.65;;;20.80;45.50;;;;;;4992726;28;20212;-70
2022/03/28 08:02:14;;;;;;;5.85;3.97;;;20.90;45.60;;;;;;4992498;28;20279;-69
2022/03/28 08:04:42;;;;;;;4.55;3.95;;;20.90;45.60;;;;;;4992460;28;20213;-70
2022/03/28 08:07:09;;;;;;;4.25;3.80;;;20.90;45.70;;;;;;4976248;28;20197;-70
2022/03/28 08:09:36;;;;;;;4.30;3.50;;;20.90;45.80;;;;;;4992433;28;20224;-70
2022/03/28 08:12:03;;;;;;;4.20;3.90;;;20.90;45.90;;;;;;4992246;28;20560;-72
2022/03/28 08:14:29;;;;;;;5.25;4.13;;;20.90;45.90;;;;;;4976061;28;20220;-69
2022/03/28 08:16:56;;;;;;;4.18;3.70;;;20.90;46.00;;;;;;4992365;28;20189;-69
2022/03/28 08:19:23;;;;;;;4.18;3.75;;;20.90;46.10;;;;;;4975952;28;20291;-70
2022/03/28 08:21:49;;;;;;;6.78;4.18;;;20.90;46.20;;;;;;4976015;28;20196;-70
2022/03/28 08:24:15;;;;;;;5.82;4.38;;;20.90;46.20;;;;;;4975878;28;20213;-71
2022/03/28 08:26:40;;;;;;;4.93;4.32;;;20.90;46.20;;;;;;4991904;28;20197;-71
2022/03/28 08:29:07;;;;;;;4.32;3.83;;;21.00;46.30;;;;;;4991870;28;20217;-70
2022/03/28 08:31:33;;;;;;;5.15;3.90;;;21.00;46.30;;;;;;4993327;28;20188;-69
2022/03/28 08:33:59;;;;;;;7.03;4.00;;;21.00;46.30;;;;;;4975671;28;20285;-69
2022/03/28 08:36:25;;;;;;;4.95;4.22;;;21.00;46.40;;;;;;4991650;28;20187;-69
2022/03/28 08:38:52;;;;;;;4.45;4.05;;;21.00;46.40;;;;;;4992013;28;20219;-70
2022/03/28 08:41:19;;;;;;;4.63;4.22;;;21.00;46.40;;;;;;4988106;28;20225;-70
2022/03/28 08:43:46;;;;;;;4.30;3.90;;;21.00;46.40;;;;;;4988647;28;20313;-70
2022/03/28 08:46:16;;;;;;;4.28;3.88;;;21.00;46.40;;;;;;4972083;28;20284;-70
2022/03/28 08:48:42;;;;;;;4.47;4.00;;;21.00;46.30;;;;;;4988495;28;20248;-70
2022/03/28 08:51:16;;;;;;;5.20;4.00;;;21.10;46.40;;;;;;4986915;28;20188;-70
2022/03/28 08:53:44;;;;;;;5.13;4.00;;;21.00;46.20;;;;;;4991544;28;20212;-70
2022/03/28 08:56:11;;;;;;;4.07;3.50;;;21.10;46.40;;;;;;4992667;28;20192;-70
2022/03/28 08:58:38;;;;;;;4.28;3.88;;;21.00;46.40;;;;;;4991840;28;20189;-70
2022/03/28 09:01:05;;;;;;;4.25;3.85;;;21.00;46.30;;;;;;4991398;28;20188;-70
2022/03/28 09:03:36;;;;;;;4.20;3.80;;;21.10;46.50;;;;;;4991397;28;20331;-70
2022/03/28 09:06:37;;;;;;;4.13;3.63;;;21.10;46.50;;;;;;4975026;28;20181;-70
2022/03/28 09:09:27;;;;;;;4.10;3.50;;;21.00;46.30;;;;;;4959226;28;20220;-70
2022/03/28 09:12:08;;;;;;;4.15;3.75;;;21.10;46.40;;;;;;4991483;28;20273;-70
2022/03/28 09:14:37;;;;;;;4.53;3.55;;;21.10;46.40;;;;;;4975078;28;20220;-69
2022/03/28 09:17:06;;;;;;;4.30;3.83;;;21.10;46.50;;;;;;4959066;28;20192;-69
2022/03/28 09:19:57;;;;;;;4.25;3.83;;;21.10;46.30;;;;;;4991253;28;20287;-69
2022/03/28 09:22:28;;;;;;;6.65;3.65;;;21.10;46.40;;;;;;4991340;28;20184;-69
2022/03/28 09:25:01;;;;;;;4.53;4.13;;;21.00;46.10;;;;;;4996465;28;20594;-69
2022/03/28 09:27:32;;;;;;;6.55;4.10;;;21.00;46.20;;;;;;4990710;28;20185;-70
2022/03/28 09:30:07;;;;;;;7.13;3.80;;;21.10;46.20;;;;;;5004176;28;20227;-69
2022/03/28 09:32:36;;;;;;;6.55;3.97;;;21.10;46.20;;;;;;4990459;28;20238;-70
2022/03/28 09:35:21;;;;;;;5.13;3.85;;;21.10;46.20;;;;;;5007081;28;20227;-69
2022/03/28 09:37:48;;;;;;;6.65;3.70;;;21.10;46.20;;;;;;4991957;28;20185;-69
2022/03/28 09:40:33;;;;;;;5.65;3.60;;;21.10;46.20;;;;;;4991723;28;20181;-69
2022/03/28 09:43:03;;;;;;;5.82;3.63;;;21.10;46.30;;;;;;5004461;28;20191;-69
2022/03/28 09:45:37;;;;;;;6.65;3.75;;;21.10;47.00;;;;;;4991008;28;20193;-69
2022/03/28 09:48:08;;;;;;;6.95;4.07;;;21.10;46.40;;;;;;4991540;28;20177;-69
2022/03/28 09:50:34;;;;;;;6.53;4.22;;;21.10;46.60;;;;;;4991477;28;20196;-69
2022/03/28 09:53:21;;;;;;;7.32;4.57;;;21.10;46.70;;;;;;4991410;28;20189;-69
2022/03/28 09:56:03;;;;;;;7.20;4.32;;;21.10;46.60;;;;;;4991498;28;20782;-70
2022/03/28 09:58:56;;;;;;;5.72;4.10;;;21.10;46.50;;;;;;4991497;28;20268;-69
2022/03/28 10:01:39;;;;;;;4.82;3.92;;;21.20;46.50;;;;;;4991565;28;20173;-69
2022/03/28 10:04:08;;;;;;;5.63;4.15;;;21.10;46.50;;;;;;4992488;28;20210;-68
2022/03/28 10:06:37;;;;;;;7.25;4.63;;;21.20;46.70;;;;;;4991536;28;20169;-70
2022/03/28 10:09:05;;;;;;;4.95;4.30;;;21.20;46.60;;;;;;4991174;28;20240;-70
2022/03/28 10:11:31;;;;;;;5.32;4.45;;;21.20;46.80;;;;;;4991456;28;20185;-69
2022/03/28 10:13:58;;;;;;;7.30;4.43;;;21.20;46.80;;;;;;4991286;28;20209;-70
2022/03/28 10:16:24;;;;;;;5.35;4.50;;;21.20;46.80;;;;;;4992337;28;20173;-69
2022/03/28 10:18:50;;;;;;;4.47;3.85;;;21.20;46.80;;;;;;4991526;28;20192;-69
2022/03/28 10:21:29;;;;;;;5.03;4.53;;;21.20;46.80;;;;;;4975229;28;20250;-69
2022/03/28 10:24:29;;;;;;;6.88;4.57;;;21.20;46.80;;;;;;4992423;28;20220;-70
2022/03/28 10:26:58;;;;;;;4.78;4.28;;;21.20;46.90;;;;;;4991458;28;20181;-69
2022/03/28 10:29:41;;;;;;;5.78;4.05;;;21.20;46.80;;;;;;4991431;28;20220;-69
2022/03/28 10:32:21;;;;;;;5.53;4.35;;;21.20;46.90;;;;;;4991187;28;20177;-70
2022/03/28 10:34:59;;;;;;;5.05;3.80;;;21.20;46.80;;;;;;4991122;28;20583;-70
2022/03/28 10:37:37;;;;;;;5.95;4.38;;;21.20;47.00;;;;;;4990922;28;20181;-69
2022/03/28 10:40:22;;;;;;;7.90;4.40;;;21.20;46.90;;;;;;4991309;28;20223;-69
2022/03/28 10:43:12;;;;;;;5.97;4.10;;;21.20;46.80;;;;;;4991027;28;20581;-68
2022/03/28 10:45:52;;;;;;;4.97;4.10;;;21.20;46.90;;;;;;4994792;28;20181;-70
2022/03/28 10:48:58;;;;;;;8.15;3.97;;;21.20;46.90;;;;;;4994403;28;20188;-70
2022/03/28 10:51:31;;;;;;;5.53;4.28;;;21.20;47.00;;;;;;4978145;28;20184;-69
2022/03/28 10:54:07;;;;;;;5.72;4.15;;;21.30;47.10;;;;;;4995646;28;20684;-69
2022/03/28 10:56:35;;;;;;;6.80;4.32;;;21.20;47.20;;;;;;4978333;28;20316;-69
2022/03/28 10:59:07;;;;;;;5.47;4.18;;;21.30;47.10;;;;;;4994555;28;20204;-70
2022/03/28 11:01:35;;;;;;;6.22;4.13;;;21.30;47.20;;;;;;4978128;28;20185;-71
2022/03/28 11:04:12;;;;;;;7.13;3.97;;;21.30;47.20;;;;;;4997338;28;20769;-71
2022/03/28 11:07:01;;;;;;;5.47;4.00;;;21.30;47.30;;;;;;4995516;28;20199;-71
2022/03/28 11:10:00;;;;;;;5.50;3.60;;;21.30;47.30;;;;;;4994489;28;20221;-70
2022/03/28 11:12:37;;;;;;;9.75;4.10;;;21.30;47.50;;;;;;4994168;28;20216;-70
2022/03/28 11:15:19;;;;;;;7.00;4.57;;;21.30;47.40;;;;;;4994122;28;20275;-70
2022/03/28 11:18:07;;;;;;;10.38;4.20;;;21.30;47.60;;;;;;4994255;28;20189;-70
2022/03/28 11:20:49;;;;;;;7.18;4.30;;;21.30;47.40;;;;;;5004233;28;20185;-70
2022/03/28 11:23:15;;;;;;;7.47;3.60;;;21.30;47.30;;;;;;4994010;28;20297;-70
2022/03/28 11:25:55;;;;;;;4.80;3.75;;;21.30;47.50;;;;;;5010445;28;20640;-71
2022/03/28 11:28:21;;;;;;;6.70;3.45;;;21.30;47.60;;;;;;5009937;28;20194;-70
2022/03/28 11:30:51;;;;;;;8.57;3.80;;;21.30;47.40;;;;;;4994041;28;20521;-70
2022/03/28 11:33:48;;;;;;;4.70;3.80;;;21.30;47.50;;;;;;4993710;28;20831;-71
2022/03/28 11:36:20;;;;;;;9.02;4.00;;;21.30;47.50;;;;;;4993470;28;20264;-71
2022/03/28 11:38:53;;;;;;;7.90;4.00;;;21.30;47.30;;;;;;4993808;28;20177;-70
2022/03/28 11:41:22;;;;;;;9.32;4.03;;;21.30;47.40;;;;;;5009799;28;20750;-70
2022/03/28 11:43:55;;;;;;;7.72;4.15;;;21.30;47.50;;;;;;5009817;28;20286;-70
2022/03/28 11:46:31;;;;;;;7.20;3.63;;;21.30;47.60;;;;;;4993197;28;20243;-70
2022/03/28 11:49:09;;;;;;;7.50;3.40;;;21.30;47.50;;;;;;5009616;28;20213;-72
2022/03/28 11:51:41;;;;;;;5.88;3.78;;;21.30;47.50;;;;;;4994472;28;20189;-70
2022/03/28 11:54:16;;;;;;;5.03;4.00;;;21.30;47.60;;;;;;5009730;28;20212;-70
2022/03/28 11:59:41;;;;;;;7.55;4.22;;;21.30;47.60;;;;;;4993290;28;20184;-71
2022/03/28 12:02:08;;;;;;;6.55;3.63;;;21.30;47.50;;;;;;4994332;28;20172;-70
2022/03/28 12:04:44;;;;;;;6.75;3.67;;;21.30;47.60;;;;;;4994801;28;20239;-70
2022/03/28 12:07:10;;;;;;;11.30;3.88;;;21.30;47.60;;;;;;4992986;28;20184;-70
2022/03/28 12:09:42;;;;;;;4.78;3.47;;;21.30;47.60;;;;;;5009363;28;20205;-71
2022/03/28 12:12:09;;;;;;;5.13;3.42;;;21.30;47.50;;;;;;4991795;28;20239;-70
2022/03/28 12:14:34;;;;;;;7.43;3.55;;;21.30;47.50;;;;;;4989696;28;20622;-69
2022/03/28 12:17:00;;;;;;;8.18;3.80;;;21.30;47.50;;;;;;4989797;28;20633;-70
2022/03/28 12:19:29;;;;;;;6.70;4.72;;;21.30;47.60;;;;;;4973585;28;20189;-70
2022/03/28 12:21:58;;;;;;;6.63;4.60;;;21.40;47.60;;;;;;4973015;28;20281;-70
2022/03/28 12:24:25;;;;;;;8.98;4.47;;;21.30;47.20;;;;;;5005242;28;20220;-70
2022/03/28 12:26:54;;;;;;;8.35;4.38;;;21.30;47.00;;;;;;5005135;28;20247;-72
2022/03/28 12:29:21;;;;;;;10.63;5.25;;;21.30;46.80;;;;;;5005213;28;20214;-70
2022/03/28 12:31:50;;;;;;;8.63;4.78;;;21.30;46.70;;;;;;5005438;28;20189;-69
2022/03/28 12:34:18;;;;;;;9.40;4.28;;;21.30;46.60;;;;;;5005638;28;20205;-69
2022/03/28 12:36:45;;;;;;;9.73;4.85;;;21.30;46.50;;;;;;4992249;28;20188;-70
2022/03/28 12:39:12;;;;;;;6.82;4.70;;;21.30;46.10;;;;;;4992375;28;20212;-69
2022/03/28 12:41:47;;;;;;;8.40;4.75;;;21.40;46.20;;;;;;4992277;28;20236;-69
2022/03/28 12:44:22;;;;;;;7.07;4.63;;;21.40;45.80;;;;;;4992222;28;20692;-69
2022/03/28 12:46:47;;;;;;;7.30;4.70;;;21.40;46.20;;;;;;4992483;28;20222;-70
2022/03/28 12:49:19;;;;;;;6.63;4.15;;;21.40;46.00;;;;;;4992395;28;20232;-69
2022/03/28 12:51:47;;;;;;;8.85;4.72;;;21.40;45.60;;;;;;4992175;28;20195;-69
2022/03/28 12:54:22;;;;;;;7.10;5.10;;;21.40;45.50;;;;;;4992405;28;20204;-69
2022/03/28 12:56:56;;;;;;;6.85;4.60;;;21.30;45.80;;;;;;4993091;28;20181;-69
2022/03/28 12:59:30;;;;;;;6.88;4.47;;;21.30;45.70;;;;;;4992202;28;20220;-69
2022/03/28 13:02:13;;;;;;;6.63;4.63;;;21.40;45.40;;;;;;4993367;28;20173;-69
2022/03/28 13:04:51;;;;;;;7.72;5.03;;;21.40;45.90;;;;;;4976174;28;20216;-69